地図

経路データ

SID SEASON NUMBER BASIN SUBBASIN NAME ISO_TIME NATURE LAT LON WMO_WIND WMO_PRES WMO_AGENCY TRACK_TYPE DIST2LAND LANDFALL IFLAG USA_AGENCY USA_ATCF_ID USA_LAT USA_LON USA_RECORD USA_STATUS USA_WIND USA_PRES USA_SSHS USA_R34_NE USA_R34_SE USA_R34_SW USA_R34_NW USA_R50_NE USA_R50_SE USA_R50_SW USA_R50_NW USA_R64_NE USA_R64_SE USA_R64_SW USA_R64_NW USA_POCI USA_ROCI USA_RMW USA_EYE TOKYO_LAT TOKYO_LON TOKYO_GRADE TOKYO_WIND TOKYO_PRES TOKYO_R50_DIR TOKYO_R50_LONG TOKYO_R50_SHORT TOKYO_R30_DIR TOKYO_R30_LONG TOKYO_R30_SHORT TOKYO_LAND CMA_LAT CMA_LON CMA_CAT CMA_WIND CMA_PRES HKO_LAT HKO_LON HKO_CAT HKO_WIND HKO_PRES NEWDELHI_LAT NEWDELHI_LON NEWDELHI_GRADE NEWDELHI_WIND NEWDELHI_PRES NEWDELHI_CI NEWDELHI_DP NEWDELHI_POCI REUNION_LAT REUNION_LON REUNION_TYPE REUNION_WIND REUNION_PRES REUNION_TNUM REUNION_CI REUNION_RMW REUNION_R34_NE REUNION_R34_SE REUNION_R34_SW REUNION_R34_NW REUNION_R50_NE REUNION_R50_SE REUNION_R50_SW REUNION_R50_NW REUNION_R64_NE REUNION_R64_SE REUNION_R64_SW REUNION_R64_NW BOM_LAT BOM_LON BOM_TYPE BOM_WIND BOM_PRES BOM_TNUM BOM_CI BOM_RMW BOM_R34_NE BOM_R34_SE BOM_R34_SW BOM_R34_NW BOM_R50_NE BOM_R50_SE BOM_R50_SW BOM_R50_NW BOM_R64_NE BOM_R64_SE BOM_R64_SW BOM_R64_NW BOM_ROCI BOM_POCI BOM_EYE BOM_POS_METHOD BOM_PRES_METHOD NADI_LAT NADI_LON NADI_CAT NADI_WIND NADI_PRES WELLINGTON_LAT WELLINGTON_LON WELLINGTON_WIND WELLINGTON_PRES DS824_LAT DS824_LON DS824_STAGE DS824_WIND DS824_PRES TD9636_LAT TD9636_LON TD9636_STAGE TD9636_WIND TD9636_PRES TD9635_LAT TD9635_LON TD9635_WIND TD9635_PRES TD9635_ROCI NEUMANN_LAT NEUMANN_LON NEUMANN_CLASS NEUMANN_WIND NEUMANN_PRES MLC_LAT MLC_LON MLC_CLASS MLC_WIND MLC_PRES USA_GUST BOM_GUST BOM_GUST_PER REUNION_GUST REUNION_GUST_PER USA_SEAHGT USA_SEARAD_NE USA_SEARAD_SE USA_SEARAD_SW USA_SEARAD_NW STORM_SPEED STORM_DIR
1920203N23089 1920 25 NI BB NOT_NAMED 1920-07-21 00:00:00 TS 23.0000 88.5000 main 0 0 _________O____ -1 23.0000 88.5000 TC 30 3 0
1920203N23089 1920 25 NI BB NOT_NAMED 1920-07-21 03:00:00 TS 22.8617 88.5067 main 0 0 _________PO___ -1 22.7925 88.5100 TC 30 23.0000 88.5000 1 3 184
1920203N23089 1920 25 NI BB NOT_NAMED 1920-07-21 06:00:00 TS 22.6819 88.4900 main 0 0 _________OP___ -1 22.6000 88.5000 TC 30 22.8047 88.4749 1 4 188
1920203N23089 1920 25 NI BB NOT_NAMED 1920-07-21 09:00:00 TS 22.5132 88.4542 main 0 0 _________PP___ -1 22.4350 88.4575 TC 30 22.6175 88.4499 1 3 193
1920203N23089 1920 25 NI BB NOT_NAMED 1920-07-21 12:00:00 TS 22.3733 88.4125 main 0 0 _________OP___ -1 22.3000 88.4000 TC 30 22.4466 88.4250 1 3 197
1920203N23089 1920 25 NI BB NOT_NAMED 1920-07-21 15:00:00 TS 22.2463 88.3712 main 0 0 _________PO___ -1 22.1925 88.3425 TC 30 22.3000 88.4000 1 2 195
1920203N23089 1920 25 NI BB NOT_NAMED 1920-07-21 18:00:00 TS 22.1413 88.3375 main 0 0 _________OP___ -1 22.1000 88.3000 TC 30 22.1825 88.3750 1 2 193
1920203N23089 1920 25 NI BB NOT_NAMED 1920-07-21 21:00:00 TS 22.0425 88.3250 main 0 0 _________PP___ -1 22.0000 88.3000 TC 30 22.0850 88.3501 1 2 182
1920203N23089 1920 25 NI BB NOT_NAMED 1920-07-22 00:00:00 TS 21.9475 88.3125 main 0 0 _________OP___ -1 21.9000 88.3000 TC 30 21.9950 88.3250 1 2 193
1920203N23089 1920 25 NI BB NOT_NAMED 1920-07-22 03:00:00 TS 21.8538 88.2750 main 0 0 _________PO___ -1 21.8075 88.2500 TC 30 21.9000 88.3000 1 2 199
1920203N23089 1920 25 NI BB NOT_NAMED 1920-07-22 06:00:00 TS 21.7391 88.2375 main 0 0 _________OP___ -1 21.7000 88.2000 TC 30 21.7781 88.2750 1 3 192
1920203N23089 1920 25 NI BB NOT_NAMED 1920-07-22 09:00:00 TS 21.6000 88.2213 main 0 0 _________PP___ -1 21.5500 88.1925 TC 30 21.6500 88.2500 1 3 0
1920203N23089 1920 25 NI BB NOT_NAMED 1920-07-22 12:00:00 TS 21.4609 88.2125 main 11 11 _________OP___ -1 21.4000 88.2000 TC 30 21.5219 88.2250 1 3 0
1920203N23089 1920 25 NI BB NOT_NAMED 1920-07-22 15:00:00 TS 21.3462 88.2038 main 33 33 _________PO___ -1 21.2925 88.2075 TC 30 21.4000 88.2000 1 2 0
1920203N23089 1920 25 NI BB NOT_NAMED 1920-07-22 18:00:00 TS 21.2622 88.2388 main 33 33 _________OP___ -1 21.2000 88.2000 TC 30 21.3244 88.2776 1 2 156
1920203N23089 1920 25 NI BB NOT_NAMED 1920-07-22 21:00:00 TS 21.2015 88.2824 main 44 44 _________PP___ -1 21.1522 88.2255 TC 30 21.2508 88.3393 1 2 191
1920203N23089 1920 25 NI BB NOT_NAMED 1920-07-23 00:00:00 TS 21.0759 88.2031 main 55 55 _________OP___ -1 21.0000 88.1000 TC 30 21.1519 88.3062 1 6 220
1920203N23089 1920 25 NI BB NOT_NAMED 1920-07-23 03:00:00 TS 20.7786 87.9059 main 93 53 _________PO___ -1 20.5573 87.7117 TC 30 21.0000 88.1000 1 10 228
1920203N23089 1920 25 NI BB NOT_NAMED 1920-07-23 06:00:00 TS 20.3842 87.3810 main 53 22 _________OP___ -1 20.1000 87.1000 TC 30 20.6683 87.6621 1 13 238
1920203N23089 1920 25 NI BB NOT_NAMED 1920-07-23 09:00:00 TS 20.0849 86.7080 main 22 0 _________PP___ -1 19.8748 86.3675 TC 30 20.2950 87.0484 1 15 250
1920203N23089 1920 25 NI BB NOT_NAMED 1920-07-23 12:00:00 TS 19.8871 85.9056 main 0 0 _________OP___ -1 19.8000 85.5000 TC 30 19.9741 86.3112 1 16 259
1920203N23089 1920 25 NI BB NOT_NAMED 1920-07-23 15:00:00 TS 19.7801 85.0247 main 0 0 _________PO___ -1 19.7602 84.5495 TC 30 19.8000 85.5000 1 17 270
1920203N23089 1920 25 NI BB NOT_NAMED 1920-07-23 18:00:00 TS 19.8871 84.1041 main 0 0 _________OP___ -1 19.9000 83.6000 TC 30 19.8741 84.6082 1 18 284
1920203N23089 1920 25 NI BB NOT_NAMED 1920-07-23 21:00:00 TS 20.2032 83.1881 main 0 0 _________PP___ -1 20.3050 82.7112 TC 30 20.1014 83.6651 1 18 294
1920203N23089 1920 25 NI BB NOT_NAMED 1920-07-24 00:00:00 TS 20.6137 82.3820 main 0 0 _________OP___ -1 20.8000 82.0000 TC 30 20.4275 82.7639 1 15 301
1920203N23089 1920 25 NI BB NOT_NAMED 1920-07-24 03:00:00 TS 20.9784 81.7908 main 0 0 _________PO___ -1 21.1568 81.5817 TC 30 20.8000 82.0000 1 12 307
1920203N23089 1920 25 NI BB NOT_NAMED 1920-07-24 06:00:00 TS 21.3203 81.3910 main 0 0 _________OP___ -1 21.5000 81.3000 TC 30 21.1405 81.4820 1 10 316
1920203N23089 1920 25 NI BB NOT_NAMED 1920-07-24 09:00:00 TS 21.7085 81.0232 main 0 0 _________PP___ -1 21.9000 80.9350 TC 30 21.5170 81.1114 1 10 321
1920203N23089 1920 25 NI BB NOT_NAMED 1920-07-24 12:00:00 TS 22.1050 80.7176 main 0 0 _________OP___ -1 22.3000 80.6000 TC 30 21.9101 80.8351 1 9 326
1920203N23089 1920 25 NI BB NOT_NAMED 1920-07-24 15:00:00 TS 22.4787 80.4674 main 0 0 _________PO___ -1 22.6574 80.3347 TC 30 22.3000 80.6000 1 9 327
1920203N23089 1920 25 NI BB NOT_NAMED 1920-07-24 18:00:00 TS 22.8264 80.2042 main 0 0 _________OP___ -1 23.0000 80.1000 TC 30 22.6529 80.3084 1 9 325
1920203N23089 1920 25 NI BB NOT_NAMED 1920-07-24 21:00:00 TS 23.1748 79.9446 main 0 0 _________PP___ -1 23.3500 79.8424 TC 30 22.9997 80.0468 1 8 327
1920203N23089 1920 25 NI BB NOT_NAMED 1920-07-25 00:00:00 TS 23.5233 79.7058 main 0 0 _________OP___ -1 23.7000 79.6000 TC 30 23.3467 79.8117 1 8 329
1920203N23089 1920 25 NI BB NOT_NAMED 1920-07-25 03:00:00 TS 23.8712 79.4924 main 0 0 _________PO___ -1 24.0425 79.3849 TC 30 23.7000 79.6000 1 8 332
1920203N23089 1920 25 NI BB NOT_NAMED 1920-07-25 06:00:00 TS 24.2338 79.2975 main 0 0 _________OP___ -1 24.4000 79.2000 TC 30 24.0677 79.3950 1 8 336
1920203N23089 1920 25 NI BB NOT_NAMED 1920-07-25 09:00:00 TS 24.6211 79.1272 main 0 0 _________PP___ -1 24.8000 79.0424 TC 30 24.4423 79.2121 1 8 339
1920203N23089 1920 25 NI BB NOT_NAMED 1920-07-25 12:00:00 TS 25.0104 78.9741 main 0 0 _________OP___ -1 25.2000 78.9000 TC 30 24.8208 79.0481 1 8 340
1920203N23089 1920 25 NI BB NOT_NAMED 1920-07-25 15:00:00 TS 25.3750 78.8212 main 0 0 _________PO___ -1 25.5500 78.7424 TC 30 25.2000 78.9000 1 8 340
1920203N23089 1920 25 NI BB NOT_NAMED 1920-07-25 18:00:00 TS 25.7156 78.6939 main 0 0 _________OP___ -1 25.9000 78.6000 TC 30 25.5773 78.7644 1 7 343
1920203N23089 1920 25 NI BB NOT_NAMED 1920-07-25 21:00:00 TS 26.0866 78.5789 main 0 0 _________PP___ -1 26.2875 78.4901 TC 30 25.9526 78.6381 1 8 345
1920203N23089 1920 25 NI BB NOT_NAMED 1920-07-26 00:00:00 TS 26.4511 78.4785 main 0 0 _________OP___ -1 26.7000 78.4000 TC 30 26.3267 78.5177 1 6 346
1920203N23089 1920 25 NI BB NOT_NAMED 1920-07-26 03:00:00 NR 26.7000 78.4000 main 0 __________O___ -1 TC 26.7000 78.4000 1 5 344

IBTrACS Databaseについて

本データベースは、米国NOAAが公開する1842年以降の世界の熱帯低気圧のベストトラックデータアーカイブInternational Best Track Archive for Climate Stewardship (IBTrACS)を、ウェブで閲覧しやすい形式に変換したものです。

最終更新日:2021-12-03